Timeline UpdatesTrip UpdatesNews PostsPvt Posts♥♥Travel TipsAdmin PostsConv PostsFollowed PostsChat RequestsBlog PostsPNR Posts

Disclaimer
Search
 
 
Thu Oct 23, 2014 06:12:35 ISTHomeTrainsΣChainsAtlasPNRForumGalleryNewsFAQTripsMembersLoginFeedback
No Recent News for this Train
Other Trains in the News **new
Latest...
.
Tue Jan 22, 2013 (09:18AM)
⇐ Return Journey: Train# 51421

51422/Nizamabad Pune Passenger (UnReserved)

Time-Table HAS CHANGED.
Sep 03 2014 (4:44PM)
Change Departure Station:
Change Arrival Station:
Post a Train Travel TipPost a Train Travel Tip **new
Post a Comment/Question/Picture/VideoPost a Comment/Question/Picture/Video
Pantry/Catering
✕ NO Pantry Car
✓ Catering Avbl
Loco/Rake Reversals
DD/Daund Junction (7);
RSA - Rake Sharing
51433-34 and 51451-52
Rake/Coach Composition
SLR, UR, UR, UR, UR, UR, UR, UR, SLR,
Loco
PUNE WDM/G-3A / WDM-3D
News    PNR    Forum    Time-Table    Availability    Fare Chart    Map    Arr/Dep History    Trips    Gallery    ΣChains    X/O    Timeline    
Travel Time: 21h 15m    74 halts    Distance: 774 km    Avg Speed: 36 km/hr
Type: Passenger
Zone: CR/Central
Departs @ 23:40 (Avg 42m late)
Platform# ???
SMTWTFS
Nizamabad/NZB 
Arrives @ 20:55 +1 night (Avg 1h 19m late)
Platform# 6
SMTWTFS
Pune Junction/PUNE 

74 halts. 95 intermediate Stations between Nizamabad and Pune Junction

Show ALL intermediate Stations  Show Old Time-Table

#TrkCodeStation NameX/OArrivesAvgDepartsAvgHaltPFDay#KmSpeedElevZoneAddress
1|--|NZBNizamabad (3)»  -23:40+42--10.047384mSCRNizamabad, Telangana
2|--|JKMJankampet Junction (1)  23:48+1:2423:49+1:241m116.256391mSCRJankampet Junction nizamabad dist., Telangana
3|--|NVTNavipet (2)  23:59+1:2800:01+1:292m--115.655374mSCRNizamabad Dist., Telangana
4|--|BSXBasar (2)  00:16+4700:18+472m1229.459358mSCRDist Adilabad, Telangana
5|--|DABDharmabad (2)  00:28+1:1900:29+1:201m--239.269354mSCRDegaon, Maharashtra
6|--|KEKKarkheliX  00:41+1:2000:42+1:251m--253.055358mSCRBiloli, Maharashtra
7|--|BLSABolsaXO  00:50+1:2800:51+1:291m--260.222361mSCRDharmabad, Maharashtra
8|--|UMRIUmri (1)XO  01:14+1:1201:15+1:121m1268.753381mSCRHuzur Sahib Nanded, Maharashtra
9|--|SVNSivungaonX  01:29+1:0901:30+1:121m--280.915395mSCRHuzur Sahib Nanded, Maharashtra
10|--|MUEMudkhed Junction (4)  01:58+1:1702:00+1:202m--288.261378mSCRMudkhed, Maharashtra
11|--|MGCMugat  02:09+1:3802:10+1:381m--297.326360mSCRHuzur Sahib Nanded, Maharashtra
12|--|NEDHazur Sahib Nanded (4)  02:40+4202:45+455m22110.556366mSCRNanded, Maharashtra
13|--|LBGLimbgaon (2)X  02:58 02:57+1:4102:59 02:58+1:411m--2121.664390mSCRHuzur Sahib Nanded, Maharashtra
14|--|CRUChudawa (1)X  03:07+1:4403:08+1:481m12131.235392mSCRHingoli, Maharashtra
15|--|PAUPurna Junction (4)X  03:25+1:2503:30+1:405m--2141.152384mSCRPurna, Maharashtra
16|--|MQLMirkhal  03:44+2:0503:45+2:051m--2153.254405mSCRPurna, Maharashtra
17|--|PIZPingli (1)X  03:51+2:0803:52+2:081m12158.660399mSCRParbhani, Maharashtra
18|--|PBNParbhani Junction (3)X  04:03+1:0104:05+1:022m12169.666414mSCRParbhani 431401, Maharashtra
19|--|PGPergaon  04:16+2:1404:17+2:151m--2181.776441mSCRParbhani, Maharashtra
20|--|MVOManwath Road (2)  04:29+2:1704:30+2:191m--2196.982421mSCRParbhani, Maharashtra
21|--|SELUSelu (2)  04:41+2:0904:42+2:121m--2212.087436mSCRParbhani, Maharashtra
22|--|SCOSatuna  04:49+2:3004:50+2:321m--2222.253440mSCRSatona, Maharashtra
23|--|UPRUsmanpur  04:59+2:3205:00+2:331m--2230.120444mSCRUsmanpur, Maharashtra
24|--|PTUPartur (2)X  05:29+2:1405:30+2:191m--2239.648465mSCRJalna, Maharashtra
25|--|PDGParadgaon  05:39-05:40-1m--2246.842454mSCRUsmanpur, Maharashtra
26|--|RNERanjani  05:49+2:1505:50+2:161m--2253.036469mSCRJalna, Maharashtra
27|--|KODIKodiXO  06:19 06:09+2:0706:20 06:10+2:071m--2264.325473mSCRRanjani, Maharashtra
28|--|SVDSarwari  06:34+1:5606:35+1:571m--2274.221493mSCRRanjani, Maharashtra
29|--|JJalna (3)  07:03+1:2707:05+1:272m--2283.960502mSCRJalna, Maharashtra
30|--|BDUBadnapur  07:24+1:3807:25+1:401m--2302.966523mSCRJalna, Maharashtra
31|--|KMVKarmadX  07:39+1:4307:40+1:461m--2318.426567mSCRAurangabad, Maharashtra
32|--|CTHChikalthan  07:49+1:4007:50+1:451m--2322.3-582mSCRAurangabad, Maharashtra
33|--|MKDDMukundwadi Halt (1)  07:54-07:55-1m12336.630580mSCRAurangabad, Maharashtra
34|--|AWBAurangabad (5)X  08:15+1:1008:20+1:135m--2346.653561mSCRAurangabad 431001, Maharashtra
35|--|DLBDaulatabad (1)  08:34+1:4308:35+1:441m12359.140575mSCRDaulatabad, Maharashtra
36|--|POZPotul (1)  08:49+1:4008:50+1:421m12368.437554mSCRLasur, Maharashtra
37|--|LSRLasur (2)  09:09+1:3409:10+1:341m--2380.268536mSCRAurangabad, Maharashtra
38|--|KAJGKaranjgaon  09:19+1:3709:20+1:371m--2390.331523mSCRLasur, Maharashtra
39|--|PSDParsoda  09:29+1:3509:30+1:371m--2395.053530mSCRRotegaon, Maharashtra
40|--|RGORotegaonX  09:44+1:3609:45+1:361m--2407.393547mSCRAurangabad, Maharashtra
41|--|TRTarur  09:59+1:2410:00+1:301m--2429.119586mSCRTaru, Maharashtra
42|--|NSLNagarsol (2)  10:19+1:3110:20+1:331m--2435.221589mSCRDist. Nashik, Maharashtra
43/--/MMRManmad Junction (6)X  11:30+2511:40+2710m42460.120580mCRManmad 423104, Maharashtra
44/=-/ANKAnkai (3)  12:18+5312:20+1:082m22473.072620mSCRDist. Nashik, Maharashtra
45/--/YLYeola (2)  12:33+4912:35+522m--2488.763553mCRYeola, Maharashtra
46/--/KPGKopargaon (2)12:48+2912:50+382m12502.366508mCRKopargaon 423601, Maharashtra
47/--/SNVRSanvatsarX  12:57-12:58-1m--2510.158521mCRNagpur-Aurngabad-Mumbai Hwy, Maharashtra
48/--/KNGNKanhegaon (2)X  13:06+1:1113:08+1:232m--2517.754498mCRAhmadnagar, Maharashtra
49/--/PBPuntamba Junction (2)  13:18+1:2513:20+1:252m22526.766501mCRPuntamba, Maharashtra
50/--/CITChitali (1)X13:28+1:3113:30+1:382m12535.525531mCRAhmadnagar, Maharashtra
51/--/BAPBelapur (2)  13:58+1:0814:00+1:132m22547.053541mCRShrirampur, Maharashtra
52/--/NPWNipani Vadgaon (2)  14:07-14:08-1m--2553.251531mCRChitali, Maharashtra
53/--/PDGNPadhegaon (1)  14:15+1:3114:17+1:322m12559.178512mCRBelapur, Maharashtra
54/--/TKMYTaklimiya (1)  14:24-14:25-1m12568.239511mCRVambori, Maharashtra
55/--/RRIRahuri (2)X  14:33+1:3214:35+1:362m--2573.461519mCRAhmadnagar, Maharashtra
56/--/VBRVambori (1)X  14:48+1:3514:50+1:362m12586.625547mCRAhmadnagar, Maharashtra
57/--/VLVilad (1)X  15:18+1:2215:20+1:222m12598.132598mCRAhmadnagar, Maharashtra
58/--/ANGAhmadnagar (2)  15:50+5915:55+1:015m12614.040650mCRAhmednagar 414001, Maharashtra
59/--/AKRAkolner (1)  16:14+1:1316:15+1:161m12626.843689mCRAhmadnagar, Maharashtra
60/--/SRLSarola (2)  16:23+1:1616:25+1:162m12632.6450mCRAhmadnagar, Maharashtra
61/--/RNJDRanjangaon Road (1)X  16:39+1:1416:40+1:191m12643.046656mCRDist. Pune, Maharashtra
62/--/VPRVisapur (2)X  16:48+1:2016:50+1:212m12649.229186mCRAhmadnagar, Maharashtra
63/--/BWDBelwandi (2)X  17:18+1:1017:20+1:102m12662.965592mCRAhmadnagar, Maharashtra
64/--/SGNDShrigonda Road (2)X  17:33+1:0917:35+1:092m22677.021547mCRAhmadnagar, Maharashtra
65/--/KSTHKashti (2)  17:59+5918:00+1:111m12685.317540mCRDaund, Maharashtra
66|-=%DDDaund Junction (7)X18:45+1:0619:00+1:1415m42698.250521mCRNew Daund Dist. Pune 413801, Maharashtra
67%==%PAAPatas (3)  19:14+1:0319:15+1:031m12709.858532mCRDist. Pune 412219, Maharashtra
68%==%KDTNKadethanX  19:20-19:21-1m12714.638532mCRDaund, Maharashtra
69%==%KDGKedgaon (2)  19:29+1:0119:30+1:011m22719.764544mCRDist. Pune 412203, Maharashtra
70%==%KTTKhutbav (2)X  19:36-19:37-1m12726.142558mCRShirur-Daund Rd Daund, Maharashtra
71%==%YTYevat (2)X  19:46+5819:47+581m12732.463558mCRDist. Pune 412214, Maharashtra
72%==%URIUruli (2)X  19:59+1:0720:00+1:071m12745.062553mCRDist. Pune 412202, Maharashtra
73%==%LONILoni (2)  20:12+1:0220:13+1:011m12757.456541mCRPune 412201, Maharashtra
74%==%MJBKManjari Budruk (2)X  20:19-20:20-1m12763.042550mCRPune 412307, Maharashtra
75%==%HDPHadapsar (3)  20:27+4420:28+441m22768.013554mCRPune 411028, Maharashtra
76/==/PUNEPune Junction (6)•  20:55+1:19-62773.8-556mCRPune 411001, Maharashtra
Scroll to Top
Scroll to Bottom